Time;durP1;ratioP1;P1;durP2;ratioP2;P2;SDS_P1;SDS_P2;PMS_P1;PMS_P2;Temp;Humidity;BMP_temperature;BMP_pressure;BME280_temperature;BME280_humidity;BME280_pressure;Samples;Min_cycle;Max_cycle;Signal;HPM_P1;HPM_P2
2023/12/12 00:01:35;;;;;;;5.93;3.73;;;6.20;99.90;;;;;;4217186;28;20445;-80
2023/12/12 00:03:37;;;;;;;9.13;4.00;;;6.20;99.90;;;;;;4217642;28;20589;-79
2023/12/12 00:05:39;;;;;;;8.80;3.90;;;6.20;99.90;;;;;;4218948;28;20197;-80
2023/12/12 00:07:41;;;;;;;7.23;3.77;;;6.10;99.90;;;;;;4215124;28;20450;-80
2023/12/12 00:09:43;;;;;;;5.70;3.33;;;6.10;99.90;;;;;;4219693;28;20459;-81
2023/12/12 00:11:45;;;;;;;6.57;3.57;;;6.10;99.90;;;;;;4215746;28;20957;-81
2023/12/12 00:13:47;;;;;;;7.27;3.40;;;6.00;99.90;;;;;;4218411;28;20239;-81
2023/12/12 00:15:51;;;;;;;6.40;3.50;;;6.00;99.90;;;;;;4217528;28;20447;-81
2023/12/12 00:17:52;;;;;;;4.37;2.70;;;6.00;99.90;;;;;;4217573;28;20470;-81
2023/12/12 00:19:54;;;;;;;6.60;2.87;;;6.00;99.90;;;;;;4218410;28;20232;-81
2023/12/12 00:21:56;;;;;;;10.20;2.67;;;5.90;99.90;;;;;;4212607;28;20746;-79
2023/12/12 00:23:58;;;;;;;4.47;2.53;;;5.90;99.90;;;;;;4212666;28;20223;-78
2023/12/12 00:26:00;;;;;;;6.77;2.27;;;5.90;99.90;;;;;;4216715;28;20209;-79
2023/12/12 00:28:02;;;;;;;5.33;2.20;;;5.90;99.90;;;;;;4201470;28;20481;-79
2023/12/12 00:30:07;;;;;;;4.97;2.37;;;5.80;99.90;;;;;;4219454;28;20471;-79
2023/12/12 00:32:10;;;;;;;5.90;2.40;;;5.80;99.90;;;;;;4216629;28;21033;-79
2023/12/12 00:34:12;;;;;;;4.57;2.40;;;5.80;99.90;;;;;;4214536;28;20443;-78
2023/12/12 00:36:14;;;;;;;3.70;2.23;;;5.70;99.90;;;;;;4213548;28;20443;-79
2023/12/12 00:38:18;;;;;;;7.77;2.83;;;5.70;99.90;;;;;;4214270;28;20489;-78
2023/12/12 00:40:20;;;;;;;7.10;2.70;;;6.00;99.90;;;;;;4213143;28;20483;-79
2023/12/12 00:42:23;;;;;;;6.23;2.53;;;5.70;99.90;;;;;;4212636;28;20499;-78
2023/12/12 00:44:23;;;;;;;5.60;2.67;;;5.90;99.90;;;;;;4210815;28;20477;-78
2023/12/12 00:46:26;;;;;;;7.50;3.20;;;5.70;99.90;;;;;;4210266;28;20944;-78
2023/12/12 00:48:29;;;;;;;6.10;2.77;;;5.70;99.90;;;;;;4217163;28;20212;-78
2023/12/12 00:50:31;;;;;;;6.40;3.30;;;5.70;99.90;;;;;;4206800;28;20473;-78
2023/12/12 00:52:33;;;;;;;7.07;3.27;;;5.80;99.90;;;;;;4218684;28;20438;-79
2023/12/12 00:54:35;;;;;;;6.87;3.60;;;5.80;99.90;;;;;;4219627;28;20985;-79
2023/12/12 00:56:37;;;;;;;7.63;3.00;;;5.80;99.90;;;;;;4221587;28;20446;-78
2023/12/12 00:58:39;;;;;;;9.60;2.97;;;5.80;99.90;;;;;;4223079;28;20493;-79
2023/12/12 01:00:40;;;;;;;4.67;2.90;;;5.80;99.90;;;;;;4221373;28;20492;-78
2023/12/12 01:02:42;;;;;;;9.77;3.60;;;5.80;99.90;;;;;;4220415;28;20784;-78
2023/12/12 01:04:45;;;;;;;6.47;2.90;;;5.90;99.90;;;;;;4224100;28;20212;-79
2023/12/12 01:06:47;;;;;;;7.00;3.10;;;6.10;99.90;;;;;;4214746;28;20780;-79
2023/12/12 01:08:48;;;;;;;15.57;3.70;;;5.80;99.90;;;;;;4211351;28;20458;-79
2023/12/12 01:10:50;;;;;;;7.87;3.43;;;5.80;99.90;;;;;;4224212;28;20968;-79
2023/12/12 01:12:51;;;;;;;5.00;2.93;;;5.80;99.90;;;;;;4214486;28;20538;-79
2023/12/12 01:14:58;;;;;;;4.90;2.70;;;5.80;99.90;;;;;;4222241;28;20442;-79
2023/12/12 01:17:00;;;;;;;7.47;3.50;;;5.80;99.90;;;;;;4218658;28;20457;-79
2023/12/12 01:19:01;;;;;;;9.13;3.30;;;5.80;99.90;;;;;;4217506;28;20513;-79
2023/12/12 01:21:05;;;;;;;7.90;2.67;;;5.50;99.90;;;;;;4217973;28;20483;-79
2023/12/12 01:23:07;;;;;;;5.30;2.60;;;5.70;99.90;;;;;;4215959;28;20719;-79
2023/12/12 01:25:09;;;;;;;4.80;2.60;;;5.70;99.90;;;;;;4217711;28;20447;-79
2023/12/12 01:27:11;;;;;;;8.33;2.90;;;5.70;99.90;;;;;;4221090;28;20789;-79
2023/12/12 01:29:16;;;;;;;6.20;2.70;;;5.70;99.90;;;;;;4219368;28;20511;-79
2023/12/12 01:31:18;;;;;;;7.90;3.10;;;5.70;99.90;;;;;;4221905;28;20466;-79
2023/12/12 01:33:21;;;;;;;3.03;2.30;;;5.70;99.90;;;;;;4216884;28;20452;-79
2023/12/12 01:35:23;;;;;;;6.93;2.97;;;5.70;99.90;;;;;;4217588;28;20450;-79
2023/12/12 01:37:27;;;;;;;6.70;2.80;;;5.70;99.90;;;;;;4216669;28;20454;-79
2023/12/12 01:39:29;;;;;;;6.87;2.63;;;6.10;99.90;;;;;;4219422;28;20474;-79
2023/12/12 01:41:31;;;;;;;4.77;2.73;;;5.90;99.90;;;;;;4217802;28;20439;-79
2023/12/12 01:43:34;;;;;;;6.23;2.83;;;5.70;99.90;;;;;;4228228;28;20450;-79
2023/12/12 01:45:35;;;;;;;4.60;2.87;;;5.70;99.90;;;;;;4221128;28;20454;-79
2023/12/12 01:47:38;;;;;;;4.77;2.63;;;5.70;99.90;;;;;;4215980;28;20855;-79
2023/12/12 01:49:40;;;;;;;6.23;3.03;;;5.70;99.90;;;;;;4216019;28;20536;-79
2023/12/12 01:51:41;;;;;;;4.60;2.80;;;5.70;99.90;;;;;;4211981;28;20499;-79
2023/12/12 01:53:47;;;;;;;6.23;2.70;;;5.80;99.90;;;;;;4217850;28;20449;-79
2023/12/12 01:55:50;;;;;;;6.93;2.83;;;5.70;99.90;;;;;;4216318;28;20461;-78
2023/12/12 01:57:53;;;;;;;6.10;2.50;;;5.70;99.90;;;;;;4217555;28;20446;-79
2023/12/12 01:59:55;;;;;;;5.10;2.77;;;5.70;99.90;;;;;;4215532;28;20466;-79
2023/12/12 02:01:57;;;;;;;7.37;2.80;;;5.70;99.90;;;;;;4217825;28;20461;-79
2023/12/12 02:03:59;;;;;;;3.87;2.27;;;5.70;99.90;;;;;;4212504;28;20546;-79
2023/12/12 02:06:02;;;;;;;5.13;2.40;;;5.80;99.90;;;;;;4216682;28;20455;-79
2023/12/12 02:08:04;;;;;;;4.80;2.20;;;5.80;99.90;;;;;;4215447;28;20451;-79
2023/12/12 02:10:09;;;;;;;4.83;2.40;;;5.80;99.90;;;;;;4216908;28;20247;-79
2023/12/12 02:12:11;;;;;;;5.30;2.30;;;5.80;99.90;;;;;;4211492;28;20476;-79
2023/12/12 02:14:13;;;;;;;6.60;2.70;;;5.90;99.90;;;;;;4217685;28;20447;-79
2023/12/12 02:16:15;;;;;;;4.90;2.27;;;5.90;99.90;;;;;;4220430;28;20537;-79
2023/12/12 02:18:16;;;;;;;5.20;2.30;;;5.90;99.90;;;;;;4220698;28;20529;-79
2023/12/12 02:20:18;;;;;;;4.50;2.47;;;5.90;99.90;;;;;;4217190;28;20290;-79
2023/12/12 02:22:22;;;;;;;6.10;2.30;;;5.90;99.90;;;;;;4216176;28;20443;-79
2023/12/12 02:24:24;;;;;;;3.67;2.00;;;6.00;99.90;;;;;;4218660;28;20210;-79
2023/12/12 02:26:26;;;;;;;3.07;1.90;;;5.90;99.90;;;;;;4218170;28;20209;-79
2023/12/12 02:28:27;;;;;;;3.17;1.90;;;5.90;99.90;;;;;;4215590;28;20446;-79
2023/12/12 02:30:29;;;;;;;2.90;1.80;;;5.90;99.90;;;;;;4216960;28;20469;-79
2023/12/12 02:32:31;;;;;;;3.40;1.80;;;6.00;99.90;;;;;;4199920;28;20266;-79
2023/12/12 02:34:33;;;;;;;4.70;2.17;;;6.00;99.90;;;;;;4217428;28;20201;-79
2023/12/12 02:36:35;;;;;;;5.70;1.90;;;6.00;99.90;;;;;;4214861;28;20447;-79
2023/12/12 02:38:39;;;;;;;2.00;1.50;;;5.90;99.90;;;;;;4223209;28;20830;-79
2023/12/12 02:40:41;;;;;;;3.20;1.50;;;5.90;99.90;;;;;;4215138;28;21767;-79
2023/12/12 02:42:46;;;;;;;2.70;1.83;;;5.90;99.90;;;;;;4221653;28;20204;-79
2023/12/12 02:44:48;;;;;;;4.13;1.90;;;5.90;99.90;;;;;;4221580;28;20496;-79
2023/12/12 02:46:50;;;;;;;3.90;2.20;;;5.90;99.90;;;;;;4216250;28;20208;-78
2023/12/12 02:48:52;;;;;;;2.60;1.70;;;6.00;99.90;;;;;;4218209;28;20503;-79
2023/12/12 02:50:54;;;;;;;4.23;2.07;;;5.90;99.90;;;;;;4217152;28;20520;-79
2023/12/12 02:52:56;;;;;;;4.80;2.53;;;5.90;99.90;;;;;;4218606;28;20200;-79
2023/12/12 02:54:59;;;;;;;6.00;2.53;;;6.00;99.90;;;;;;4218840;28;20273;-79
2023/12/12 02:57:01;;;;;;;4.57;2.70;;;6.00;99.90;;;;;;4218129;28;20209;-79
2023/12/12 02:59:03;;;;;;;7.80;3.13;;;6.00;99.90;;;;;;4216986;28;20240;-79
2023/12/12 03:01:05;;;;;;;6.27;2.70;;;6.00;99.90;;;;;;4217636;28;20970;-79
2023/12/12 03:03:07;;;;;;;5.43;3.17;;;6.00;99.90;;;;;;4215317;28;20820;-79
2023/12/12 03:05:09;;;;;;;7.30;3.10;;;6.00;99.90;;;;;;4199446;28;20835;-79
2023/12/12 03:07:11;;;;;;;8.17;3.40;;;6.00;99.90;;;;;;4218748;28;20212;-79
2023/12/12 03:09:13;;;;;;;5.97;3.43;;;5.90;99.90;;;;;;4227444;28;20208;-79
2023/12/12 03:11:16;;;;;;;4.67;3.07;;;6.00;99.90;;;;;;4219729;28;20232;-79
2023/12/12 03:13:18;;;;;;;6.67;3.10;;;6.00;99.90;;;;;;4223350;28;20838;-79
2023/12/12 03:15:20;;;;;;;6.37;3.20;;;6.10;99.90;;;;;;4220825;28;20209;-78
2023/12/12 03:17:21;;;;;;;6.67;3.70;;;6.10;99.90;;;;;;4213831;28;20319;-78
2023/12/12 03:19:24;;;;;;;6.50;3.50;;;6.00;99.90;;;;;;4226554;28;20249;-78
2023/12/12 03:21:26;;;;;;;10.60;4.33;;;6.10;99.90;;;;;;4229763;28;20221;-78
2023/12/12 03:23:28;;;;;;;6.80;3.50;;;6.10;99.90;;;;;;4228500;28;20454;-78
2023/12/12 03:25:30;;;;;;;8.10;3.63;;;6.10;99.90;;;;;;4224916;28;20246;-79
2023/12/12 03:27:33;;;;;;;7.00;3.40;;;6.10;99.90;;;;;;4222873;28;20317;-79
2023/12/12 03:29:36;;;;;;;9.57;4.43;;;6.00;99.90;;;;;;4215930;28;20261;-79
2023/12/12 03:31:38;;;;;;;9.77;4.13;;;6.00;99.90;;;;;;4226049;28;20702;-79
2023/12/12 03:33:40;;;;;;;10.17;5.00;;;6.00;99.90;;;;;;4222476;28;20208;-79
2023/12/12 03:35:42;;;;;;;7.23;4.10;;;5.90;99.90;;;;;;4227255;28;20447;-79
2023/12/12 03:37:45;;;;;;;8.30;4.13;;;5.90;99.90;;;;;;4214450;28;20439;-79
2023/12/12 03:39:46;;;;;;;12.10;4.47;;;5.90;99.90;;;;;;4214707;28;20923;-79
2023/12/12 03:41:48;;;;;;;11.60;5.23;;;6.10;99.90;;;;;;4217983;28;20447;-79
2023/12/12 03:43:52;;;;;;;8.53;4.30;;;5.90;99.90;;;;;;4204915;28;20868;-79
2023/12/12 03:45:54;;;;;;;12.37;6.07;;;5.70;99.90;;;;;;4216263;28;20201;-79
2023/12/12 03:47:56;;;;;;;10.83;5.30;;;5.70;99.90;;;;;;4214969;28;21210;-79
2023/12/12 03:49:57;;;;;;;10.53;4.53;;;5.70;99.90;;;;;;4213796;28;21045;-79
2023/12/12 03:51:59;;;;;;;11.97;5.27;;;5.70;99.90;;;;;;4221915;28;21377;-78
2023/12/12 03:54:01;;;;;;;10.23;5.27;;;5.60;99.90;;;;;;4198076;28;20464;-79
2023/12/12 03:56:04;;;;;;;9.33;4.60;;;5.60;99.90;;;;;;4214490;28;20454;-79
2023/12/12 03:58:06;;;;;;;6.60;3.50;;;5.60;99.90;;;;;;4216600;28;20549;-79
2023/12/12 04:00:11;;;;;;;8.80;4.40;;;5.50;99.90;;;;;;4218094;28;20497;-79
2023/12/12 04:02:13;;;;;;;6.47;3.97;;;5.50;99.90;;;;;;4216837;28;20450;-79
2023/12/12 04:04:14;;;;;;;7.20;3.90;;;5.50;99.90;;;;;;4217206;28;20500;-79
2023/12/12 04:06:16;;;;;;;9.10;4.07;;;5.40;99.90;;;;;;4219223;28;20446;-79
2023/12/12 04:08:18;;;;;;;8.37;4.07;;;5.40;99.90;;;;;;4213870;28;20537;-79
2023/12/12 04:10:19;;;;;;;10.37;5.00;;;5.40;99.90;;;;;;4211750;28;20233;-79
2023/12/12 04:12:21;;;;;;;10.30;5.47;;;5.30;99.90;;;;;;4210874;28;20531;-79
2023/12/12 04:14:23;;;;;;;9.13;4.40;;;5.30;99.90;;;;;;4215578;28;20450;-78
2023/12/12 04:16:26;;;;;;;8.33;4.33;;;5.30;99.90;;;;;;4214636;28;20503;-79
2023/12/12 04:18:27;;;;;;;7.93;4.40;;;5.40;99.90;;;;;;4212235;28;20455;-79
2023/12/12 04:20:29;;;;;;;11.47;5.20;;;5.30;99.90;;;;;;4213507;28;20514;-79
2023/12/12 04:22:31;;;;;;;8.63;4.70;;;5.30;99.90;;;;;;4212474;28;20201;-79
2023/12/12 04:24:36;;;;;;;10.77;5.37;;;5.30;99.90;;;;;;4211819;28;20877;-78
2023/12/12 04:26:38;;;;;;;12.33;4.67;;;5.30;99.90;;;;;;4214650;28;20445;-78
2023/12/12 04:28:40;;;;;;;9.83;5.20;;;5.30;99.90;;;;;;4222183;28;20463;-79
2023/12/12 04:30:42;;;;;;;11.87;5.43;;;5.30;99.90;;;;;;4216844;28;20463;-78
2023/12/12 04:32:44;;;;;;;13.43;5.30;;;5.30;99.90;;;;;;4195713;28;20948;-79
2023/12/12 04:34:46;;;;;;;11.73;4.63;;;5.30;99.90;;;;;;4212659;28;20451;-79
2023/12/12 04:36:48;;;;;;;12.73;5.57;;;5.30;99.90;;;;;;4214752;28;20954;-79
2023/12/12 04:38:50;;;;;;;12.30;5.50;;;5.30;99.90;;;;;;4217563;28;20462;-79
2023/12/12 04:40:51;;;;;;;9.67;4.37;;;5.40;99.90;;;;;;4219660;28;20462;-78
2023/12/12 04:42:53;;;;;;;16.37;4.70;;;5.50;99.90;;;;;;4216482;28;21433;-79
2023/12/12 04:44:55;;;;;;;9.33;4.90;;;5.40;99.90;;;;;;4222435;28;20208;-78
2023/12/12 04:46:56;;;;;;;9.90;4.57;;;5.40;99.90;;;;;;4208876;28;20515;-79
2023/12/12 04:49:02;;;;;;;7.90;4.40;;;5.40;99.90;;;;;;4216437;28;20490;-78
2023/12/12 04:51:04;;;;;;;9.73;4.60;;;5.40;99.90;;;;;;4208057;28;20474;-79
2023/12/12 04:53:06;;;;;;;10.67;4.37;;;5.40;99.90;;;;;;4223730;28;20736;-78
2023/12/12 04:55:08;;;;;;;10.23;4.67;;;5.40;99.90;;;;;;4193045;28;20537;-78
2023/12/12 04:57:10;;;;;;;8.63;4.53;;;5.40;99.90;;;;;;4213472;28;20471;-79
2023/12/12 04:59:12;;;;;;;9.27;4.67;;;5.50;99.90;;;;;;4212791;28;20457;-79
2023/12/12 05:01:15;;;;;;;8.63;4.73;;;5.50;99.90;;;;;;4219971;28;20894;-78
2023/12/12 05:03:17;;;;;;;10.10;4.47;;;5.50;99.90;;;;;;4217243;28;20471;-79
2023/12/12 05:05:20;;;;;;;12.77;4.33;;;5.50;99.90;;;;;;4216081;28;20624;-79
2023/12/12 05:07:22;;;;;;;9.27;4.27;;;5.50;99.90;;;;;;4214927;28;20451;-79
2023/12/12 05:09:24;;;;;;;12.37;4.40;;;5.50;99.90;;;;;;4213758;28;20494;-79
2023/12/12 05:11:26;;;;;;;10.10;5.37;;;5.50;99.90;;;;;;4210572;28;20471;-78
2023/12/12 05:13:29;;;;;;;11.13;4.50;;;5.50;99.90;;;;;;4213034;28;20480;-79
2023/12/12 05:15:31;;;;;;;7.60;4.70;;;5.50;99.90;;;;;;4211182;28;20442;-79
2023/12/12 05:17:32;;;;;;;7.63;4.33;;;5.50;99.90;;;;;;4214640;28;20966;-78
2023/12/12 05:19:33;;;;;;;11.33;4.80;;;5.50;99.90;;;;;;4194981;28;20483;-79
2023/12/12 05:21:37;;;;;;;9.80;4.07;;;5.50;99.90;;;;;;4214582;28;20466;-79
2023/12/12 05:23:39;;;;;;;10.57;4.43;;;5.50;99.90;;;;;;4212447;28;20224;-79
2023/12/12 05:25:41;;;;;;;10.93;4.23;;;5.50;99.90;;;;;;4216432;28;20497;-79
2023/12/12 05:27:43;;;;;;;7.73;4.10;;;5.50;99.90;;;;;;4194700;28;20861;-79
2023/12/12 05:29:45;;;;;;;7.97;4.27;;;5.50;99.90;;;;;;4212644;28;20442;-79
2023/12/12 05:31:47;;;;;;;9.90;4.80;;;5.60;99.90;;;;;;4212600;28;21154;-79
2023/12/12 05:33:49;;;;;;;9.33;4.77;;;5.60;99.90;;;;;;4213706;28;20451;-78
2023/12/12 05:35:51;;;;;;;9.17;4.53;;;5.60;99.90;;;;;;4223004;28;20455;-79
2023/12/12 05:37:55;;;;;;;8.87;5.23;;;5.40;99.90;;;;;;4221916;28;20450;-79
2023/12/12 05:39:57;;;;;;;8.33;4.57;;;5.60;99.90;;;;;;4217819;28;20497;-79
2023/12/12 05:41:59;;;;;;;12.10;5.13;;;5.60;99.90;;;;;;4218429;28;20837;-79
2023/12/12 05:44:00;;;;;;;13.53;4.80;;;5.60;99.90;;;;;;4226256;28;20457;-79
2023/12/12 05:46:04;;;;;;;10.80;5.07;;;5.60;99.90;;;;;;4219656;28;20450;-79
2023/12/12 05:48:07;;;;;;;14.67;7.67;;;5.60;99.90;;;;;;4218860;28;20471;-79
2023/12/12 05:50:10;;;;;;;13.77;5.90;;;5.60;99.90;;;;;;4216621;28;21404;-80
2023/12/12 05:52:12;;;;;;;18.53;6.57;;;5.60;99.90;;;;;;4218474;28;20825;-80
2023/12/12 05:54:16;;;;;;;14.77;6.53;;;5.70;99.90;;;;;;4211808;28;20801;-80
2023/12/12 05:56:18;;;;;;;20.10;7.37;;;5.70;99.90;;;;;;4210678;28;21007;-79
2023/12/12 05:58:20;;;;;;;15.10;7.10;;;5.70;99.90;;;;;;4213497;28;20528;-79
2023/12/12 06:00:22;;;;;;;14.73;6.83;;;5.60;99.90;;;;;;4214594;28;20913;-80
2023/12/12 06:02:24;;;;;;;12.93;6.10;;;5.70;99.90;;;;;;4213659;28;20454;-80
2023/12/12 06:04:26;;;;;;;14.57;6.03;;;5.70;99.90;;;;;;4200586;28;20460;-80
2023/12/12 06:06:28;;;;;;;13.60;5.80;;;5.70;99.90;;;;;;4212101;28;20511;-79
2023/12/12 06:08:30;;;;;;;12.43;5.77;;;5.70;99.90;;;;;;4214829;28;20446;-80
2023/12/12 06:10:34;;;;;;;10.83;5.67;;;5.70;99.90;;;;;;4217319;28;21065;-80
2023/12/12 06:12:36;;;;;;;12.30;4.83;;;5.80;99.90;;;;;;4216153;28;20462;-80
2023/12/12 06:14:40;;;;;;;10.13;5.00;;;5.70;99.90;;;;;;4214720;28;20453;-80
2023/12/12 06:16:44;;;;;;;9.47;4.83;;;5.60;99.90;;;;;;4216700;28;20443;-79
2023/12/12 06:18:48;;;;;;;10.33;5.23;;;5.60;99.90;;;;;;4218865;28;20437;-80
2023/12/12 06:20:49;;;;;;;9.70;4.30;;;5.70;99.90;;;;;;4215207;28;21066;-81
2023/12/12 06:22:51;;;;;;;9.63;4.50;;;5.70;99.90;;;;;;4213649;28;20439;-81
2023/12/12 06:24:53;;;;;;;10.70;4.50;;;5.70;99.90;;;;;;4214182;28;20613;-80
2023/12/12 06:26:56;;;;;;;10.17;4.60;;;5.70;99.90;;;;;;4217199;28;20208;-82
2023/12/12 06:28:58;;;;;;;9.23;4.20;;;5.70;99.90;;;;;;4215352;28;20442;-80
2023/12/12 06:31:00;;;;;;;10.47;5.27;;;5.70;99.90;;;;;;4214225;28;20459;-80
2023/12/12 06:33:02;;;;;;;10.23;4.67;;;5.70;99.90;;;;;;4218031;28;20469;-81
2023/12/12 06:35:04;;;;;;;11.07;4.40;;;5.70;99.90;;;;;;4211523;28;20443;-80
2023/12/12 06:37:06;;;;;;;10.80;5.00;;;5.60;99.90;;;;;;4212987;28;20443;-81
2023/12/12 06:39:09;;;;;;;11.20;5.37;;;5.70;99.90;;;;;;4215471;28;20938;-80
2023/12/12 06:41:12;;;;;;;12.63;4.67;;;5.70;99.90;;;;;;4213386;28;21078;-81
2023/12/12 06:43:16;;;;;;;12.07;4.83;;;5.70;99.90;;;;;;4214239;28;21000;-80
2023/12/12 06:45:18;;;;;;;7.33;3.77;;;5.80;99.90;;;;;;4213894;28;20467;-81
2023/12/12 06:47:19;;;;;;;8.20;4.23;;;5.80;99.90;;;;;;4215889;28;20447;-80
2023/12/12 06:49:21;;;;;;;10.93;4.87;;;5.80;99.90;;;;;;4215251;28;20198;-80
2023/12/12 06:51:23;;;;;;;12.80;4.37;;;5.80;99.90;;;;;;4214760;28;20287;-80
2023/12/12 06:53:24;;;;;;;8.10;4.80;;;5.80;99.90;;;;;;4214846;28;20533;-80
2023/12/12 06:55:26;;;;;;;9.47;4.00;;;6.20;99.90;;;;;;4215134;28;20453;-80
2023/12/12 06:57:28;;;;;;;11.10;4.03;;;5.90;99.90;;;;;;4215456;28;20205;-82
2023/12/12 06:59:31;;;;;;;7.33;3.70;;;5.90;99.90;;;;;;4215481;28;20212;-80
2023/12/12 07:01:33;;;;;;;6.27;3.90;;;5.90;99.90;;;;;;4213341;28;21057;-81
2023/12/12 07:03:35;;;;;;;8.20;3.70;;;6.00;99.90;;;;;;4218033;28;20694;-81
2023/12/12 07:05:37;;;;;;;9.17;4.37;;;6.00;99.90;;;;;;4212540;28;21039;-81
2023/12/12 07:07:39;;;;;;;9.40;4.00;;;5.90;99.90;;;;;;4213679;28;20204;-81
2023/12/12 07:09:41;;;;;;;10.20;4.10;;;6.30;99.90;;;;;;4216649;28;20459;-82
2023/12/12 07:11:44;;;;;;;9.93;3.57;;;6.00;99.90;;;;;;4212768;28;20447;-81
2023/12/12 07:13:46;;;;;;;8.67;3.80;;;6.00;99.90;;;;;;4213709;28;20435;-81
2023/12/12 07:15:49;;;;;;;7.57;3.60;;;6.00;99.90;;;;;;4212967;28;20938;-81
2023/12/12 07:17:51;;;;;;;8.20;3.57;;;6.60;99.90;;;;;;4212915;28;20213;-81
2023/12/12 07:19:53;;;;;;;8.67;4.10;;;6.10;99.90;;;;;;4214748;28;20289;-81
2023/12/12 07:21:54;;;;;;;9.30;4.10;;;6.10;99.90;;;;;;4217832;28;20205;-81
2023/12/12 07:23:56;;;;;;;5.70;3.47;;;6.20;99.90;;;;;;4215746;28;20451;-81
2023/12/12 07:25:58;;;;;;;7.03;3.73;;;6.20;99.90;;;;;;4214356;28;20213;-81
2023/12/12 07:28:00;;;;;;;7.10;3.30;;;6.20;99.90;;;;;;4212781;28;20435;-80
2023/12/12 07:30:02;;;;;;;6.20;3.50;;;6.20;99.90;;;;;;4217832;28;20467;-81
2023/12/12 07:32:06;;;;;;;9.63;3.40;;;6.20;99.90;;;;;;4216816;28;20478;-81
2023/12/12 07:34:08;;;;;;;9.03;3.40;;;6.20;99.90;;;;;;4217671;28;20451;-81
2023/12/12 07:36:10;;;;;;;8.60;3.63;;;6.30;99.90;;;;;;4214778;28;20450;-81
2023/12/12 07:38:12;;;;;;;8.47;4.17;;;6.20;99.90;;;;;;4215195;28;20460;-82
2023/12/12 07:40:14;;;;;;;8.03;4.20;;;6.20;99.90;;;;;;4218418;28;20252;-81
2023/12/12 07:42:15;;;;;;;6.93;3.90;;;6.30;99.90;;;;;;4217646;28;20215;-81
2023/12/12 07:44:17;;;;;;;7.57;4.20;;;6.90;99.90;;;;;;4216390;28;20447;-81
2023/12/12 07:46:20;;;;;;;10.87;3.90;;;6.20;99.90;;;;;;4222871;28;20197;-81
2023/12/12 07:48:23;;;;;;;9.53;4.47;;;6.20;99.90;;;;;;4215306;28;20567;-81
2023/12/12 07:50:25;;;;;;;8.97;4.00;;;6.20;99.90;;;;;;4209544;28;20793;-81
2023/12/12 07:52:26;;;;;;;9.37;5.20;;;6.20;99.90;;;;;;4214714;28;20209;-81
2023/12/12 07:54:28;;;;;;;9.40;4.37;;;6.20;99.90;;;;;;4215586;28;20209;-81
2023/12/12 07:56:30;;;;;;;10.97;4.80;;;6.20;99.90;;;;;;4222286;28;20457;-81
2023/12/12 07:58:32;;;;;;;10.73;4.93;;;6.20;99.90;;;;;;4225246;28;20212;-81
2023/12/12 08:00:34;;;;;;;9.70;4.40;;;6.30;99.90;;;;;;4224060;28;20229;-82
2023/12/12 08:02:36;;;;;;;8.93;5.13;;;6.30;99.90;;;;;;4224624;28;20208;-82
2023/12/12 08:04:40;;;;;;;13.97;5.30;;;6.30;99.90;;;;;;4233527;28;20226;-81
2023/12/12 08:06:42;;;;;;;12.73;5.83;;;6.40;99.90;;;;;;4230667;28;20193;-82
2023/12/12 08:08:44;;;;;;;16.83;5.87;;;6.30;99.90;;;;;;4214560;28;20224;-82
2023/12/12 08:10:46;;;;;;;10.80;5.47;;;6.30;99.90;;;;;;4212811;28;20248;-83
2023/12/12 08:12:49;;;;;;;15.27;5.80;;;6.20;99.90;;;;;;4213255;28;20815;-80
2023/12/12 08:14:52;;;;;;;15.90;5.20;;;6.30;99.90;;;;;;4217398;28;20450;-79
2023/12/12 08:16:54;;;;;;;13.33;5.43;;;6.30;99.90;;;;;;4214041;28;20436;-80
2023/12/12 08:18:56;;;;;;;14.87;5.40;;;6.30;99.90;;;;;;4215526;28;20208;-80
2023/12/12 08:20:59;;;;;;;13.90;5.93;;;6.40;99.90;;;;;;4215037;28;20482;-82
2023/12/12 08:23:01;;;;;;;10.37;4.90;;;6.40;99.90;;;;;;4212497;28;20231;-80
2023/12/12 08:25:05;;;;;;;10.47;5.17;;;6.40;99.90;;;;;;4213723;28;20443;-81
2023/12/12 08:27:10;;;;;;;13.33;5.67;;;6.40;99.90;;;;;;4212684;28;20973;-81
2023/12/12 08:29:12;;;;;;;9.73;5.10;;;6.40;99.90;;;;;;4212199;28;20294;-81
2023/12/12 08:31:14;;;;;;;12.20;5.10;;;6.40;99.90;;;;;;4213609;28;20221;-80
2023/12/12 08:33:16;;;;;;;12.07;5.00;;;6.50;99.90;;;;;;4215894;28;20408;-79
2023/12/12 08:35:18;;;;;;;8.90;5.47;;;6.50;99.90;;;;;;4213648;28;20488;-81
2023/12/12 08:37:21;;;;;;;14.80;5.47;;;6.50;99.90;;;;;;4213872;28;20608;-81
2023/12/12 08:39:23;;;;;;;10.63;5.40;;;6.50;99.90;;;;;;4218287;28;20431;-81
2023/12/12 08:41:27;;;;;;;14.90;5.97;;;6.60;99.90;;;;;;4215275;28;20217;-82
2023/12/12 08:43:30;;;;;;;15.83;5.60;;;6.70;99.90;;;;;;4193563;28;20460;-83
2023/12/12 08:45:32;;;;;;;11.40;5.40;;;6.60;99.90;;;;;;4216255;28;20291;-82
2023/12/12 08:47:36;;;;;;;12.17;5.80;;;6.60;99.90;;;;;;4198813;28;21283;-82
2023/12/12 08:49:38;;;;;;;14.90;5.50;;;6.70;99.90;;;;;;4214314;28;20201;-82
2023/12/12 08:51:40;;;;;;;13.00;5.53;;;6.70;99.90;;;;;;4212704;28;20217;-82
2023/12/12 08:53:43;;;;;;;10.53;5.10;;;6.70;99.90;;;;;;4216017;28;20642;-81
2023/12/12 08:55:48;;;;;;;11.37;5.27;;;6.70;99.90;;;;;;4218668;28;20249;-80
2023/12/12 08:57:50;;;;;;;13.77;5.50;;;6.70;99.90;;;;;;4213063;28;20284;-82
2023/12/12 08:59:51;;;;;;;10.37;4.80;;;6.80;99.90;;;;;;4211842;28;20209;-81
2023/12/12 09:01:53;;;;;;;14.63;5.17;;;7.00;99.90;;;;;;4209918;28;20563;-80
2023/12/12 09:03:56;;;;;;;11.77;4.80;;;6.80;99.90;;;;;;4214070;28;20779;-81
2023/12/12 09:05:58;;;;;;;8.63;4.30;;;6.80;99.90;;;;;;4211159;28;20317;-82
2023/12/12 09:08:00;;;;;;;9.63;4.53;;;6.80;99.90;;;;;;4210735;28;20209;-82
2023/12/12 09:10:05;;;;;;;9.73;5.20;;;6.90;99.90;;;;;;4211134;28;20232;-81
2023/12/12 09:12:08;;;;;;;11.43;4.37;;;6.90;99.90;;;;;;4214346;28;20208;-81
2023/12/12 09:14:10;;;;;;;13.00;4.63;;;6.90;99.90;;;;;;4214303;28;20209;-81
2023/12/12 09:16:12;;;;;;;8.43;4.10;;;6.90;99.90;;;;;;4210479;28;20993;-81
2023/12/12 09:18:15;;;;;;;13.00;4.40;;;7.00;99.90;;;;;;4220830;28;20240;-81
2023/12/12 09:20:18;;;;;;;11.00;4.43;;;7.00;99.90;;;;;;4213030;28;20233;-81
2023/12/12 09:22:20;;;;;;;13.87;4.23;;;7.00;99.90;;;;;;4212163;28;20223;-82
2023/12/12 09:24:21;;;;;;;9.33;4.50;;;7.00;99.90;;;;;;4215531;28;20278;-82
2023/12/12 09:26:24;;;;;;;9.77;4.10;;;7.00;99.90;;;;;;4218416;28;20806;-82
2023/12/12 09:28:26;;;;;;;10.03;3.53;;;7.10;99.90;;;;;;4216748;28;20231;-81
2023/12/12 09:30:28;;;;;;;10.47;4.57;;;7.10;99.90;;;;;;4193195;28;20261;-82
2023/12/12 09:32:30;;;;;;;9.77;4.60;;;7.20;99.90;;;;;;4214676;28;20731;-82
2023/12/12 09:34:31;;;;;;;13.17;4.40;;;7.20;99.90;;;;;;4208319;28;20197;-81
2023/12/12 09:36:33;;;;;;;13.00;4.27;;;7.30;99.90;;;;;;4218252;28;20291;-81
2023/12/12 09:38:36;;;;;;;14.27;4.67;;;7.20;99.90;;;;;;4219157;28;20205;-81
2023/12/12 09:40:39;;;;;;;11.90;3.67;;;7.30;99.90;;;;;;4224706;28;20683;-81
2023/12/12 09:42:44;;;;;;;7.37;3.50;;;7.30;99.90;;;;;;4218906;28;20218;-82
2023/12/12 09:44:54;;;;;;;11.03;3.80;;;7.30;99.90;;;;;;4195208;28;20214;-82
2023/12/12 09:46:57;;;;;;;8.43;3.23;;;7.40;99.90;;;;;;4217802;28;20251;-81
2023/12/12 09:49:01;;;;;;;7.93;3.20;;;7.40;99.90;;;;;;4217581;28;20504;-81
2023/12/12 09:51:04;;;;;;;12.90;3.40;;;7.50;99.90;;;;;;4214956;28;20318;-80
2023/12/12 09:53:06;;;;;;;11.47;3.70;;;7.50;99.90;;;;;;4218826;28;20737;-82
2023/12/12 09:55:10;;;;;;;9.57;3.30;;;7.60;99.90;;;;;;4216255;28;20206;-80
2023/12/12 09:57:12;;;;;;;14.30;3.87;;;7.60;99.90;;;;;;4216147;28;20205;-80
2023/12/12 09:59:15;;;;;;;9.63;3.30;;;7.60;99.90;;;;;;4218525;28;20726;-82
2023/12/12 10:01:17;;;;;;;5.27;3.03;;;7.60;99.90;;;;;;4218633;28;20313;-82
2023/12/12 10:03:20;;;;;;;8.17;2.73;;;7.90;99.90;;;;;;4217424;28;20214;-80
2023/12/12 10:05:22;;;;;;;7.73;2.90;;;7.70;99.90;;;;;;4219023;28;20205;-81
2023/12/12 10:07:24;;;;;;;7.43;2.83;;;7.70;99.90;;;;;;4215059;28;20210;-80
2023/12/12 10:09:26;;;;;;;6.83;2.70;;;7.80;99.90;;;;;;4223594;28;20217;-80
2023/12/12 10:11:28;;;;;;;5.40;2.60;;;7.80;99.90;;;;;;4197151;28;20286;-80
2023/12/12 10:13:47;;;;;;;7.23;3.13;;;7.80;99.90;;;;;;4219007;28;20208;-79
2023/12/12 10:15:50;;;;;;;9.30;2.80;;;7.90;99.90;;;;;;4221748;28;20206;-80
2023/12/12 10:17:56;;;;;;;7.57;2.90;;;7.90;99.90;;;;;;4224353;28;20321;-80
2023/12/12 10:20:00;;;;;;;8.80;2.80;;;7.90;99.90;;;;;;4222821;28;20226;-81
2023/12/12 10:22:04;;;;;;;13.43;3.27;;;8.00;99.90;;;;;;4239344;28;20222;-81
2023/12/12 10:24:07;;;;;;;7.77;2.67;;;8.00;99.90;;;;;;4221380;28;20656;-81
2023/12/12 10:26:09;;;;;;;10.17;3.10;;;8.00;99.90;;;;;;4216865;28;20263;-81
2023/12/12 10:28:11;;;;;;;7.70;3.03;;;8.10;99.90;;;;;;4210598;28;20253;-81
2023/12/12 10:30:13;;;;;;;8.07;2.63;;;8.10;99.90;;;;;;4216188;28;20307;-81
2023/12/12 10:32:16;;;;;;;7.93;2.40;;;8.10;99.90;;;;;;4217165;28;20191;-82
2023/12/12 10:34:19;;;;;;;6.37;2.93;;;8.20;99.90;;;;;;4219696;28;20286;-81
2023/12/12 10:36:22;;;;;;;7.33;3.00;;;8.20;99.90;;;;;;4217928;28;20293;-81
2023/12/12 10:38:25;;;;;;;8.20;2.70;;;8.20;99.90;;;;;;4215461;28;20207;-81
2023/12/12 10:40:27;;;;;;;7.40;2.37;;;8.30;99.90;;;;;;4199044;28;20251;-81
2023/12/12 10:42:32;;;;;;;7.43;2.50;;;8.30;99.90;;;;;;4215339;28;20215;-81